createdAt,value
2022-10-13T03:18:34.239Z,8.33
2022-10-13T03:21:04.508Z,8.33
2022-10-13T03:23:33.127Z,8.37
2022-10-13T03:26:01.417Z,8.40
2022-10-13T03:28:29.929Z,8.40
2022-10-13T03:31:05.149Z,8.44
2022-10-13T03:33:34.751Z,8.46
2022-10-13T03:36:04.358Z,8.46
2022-10-13T03:38:33.758Z,8.45
2022-10-13T03:41:06.337Z,8.46
2022-10-13T03:43:34.577Z,8.50
2022-10-13T03:46:03.927Z,8.52
2022-10-13T03:48:32.431Z,8.47
2022-10-13T03:51:05.376Z,8.50
2022-10-13T03:53:33.877Z,8.51
2022-10-13T03:56:02.696Z,8.48
2022-10-13T03:58:30.852Z,8.48
2022-10-13T04:01:04.757Z,8.59
2022-10-13T04:03:33.368Z,8.62
2022-10-13T04:06:03.477Z,8.67
2022-10-13T04:08:31.850Z,8.67
2022-10-13T04:11:01.151Z,8.61
2022-10-13T04:13:30.173Z,8.73
2022-10-13T04:15:58.319Z,8.67
2022-10-13T04:18:26.471Z,8.58
2022-10-13T04:20:54.577Z,8.47
2022-10-13T04:23:24.367Z,8.45
2022-10-13T04:25:52.676Z,8.47
2022-10-13T04:28:20.907Z,8.52
2022-10-13T04:30:49.706Z,8.56
2022-10-13T04:33:18.000Z,8.52
2022-10-13T04:35:46.817Z,8.60
2022-10-13T04:38:14.958Z,8.64
2022-10-13T04:40:44.917Z,8.61
2022-10-13T04:43:13.010Z,8.63
2022-10-13T04:45:41.726Z,8.65
2022-10-13T04:48:09.831Z,8.64
2022-10-13T04:50:38.047Z,8.66
2022-10-13T04:53:06.148Z,8.70
2022-10-13T04:55:37.303Z,8.77
2022-10-13T04:58:06.818Z,8.83
2022-10-13T05:00:35.117Z,8.86
2022-10-13T05:03:03.337Z,8.87
2022-10-13T05:05:31.488Z,8.95
2022-10-13T05:07:59.618Z,9.01
2022-10-13T05:10:31.311Z,8.91
2022-10-13T05:13:02.768Z,8.87
2022-10-13T05:15:32.287Z,8.92
2022-10-13T05:18:00.718Z,8.87
2022-10-13T05:20:28.818Z,8.93
2022-10-13T05:22:57.211Z,8.88
2022-10-13T05:25:26.197Z,8.85
2022-10-13T05:27:56.439Z,8.86
2022-10-13T05:30:24.558Z,8.87
2022-10-13T05:32:54.163Z,8.87
2022-10-13T05:35:22.377Z,8.89
2022-10-13T05:37:50.548Z,8.91
2022-10-13T05:40:18.835Z,8.97
2022-10-13T05:42:46.919Z,8.96
2022-10-13T05:45:15.107Z,9.00
2022-10-13T05:47:43.221Z,9.01
2022-10-13T05:50:12.974Z,8.98
2022-10-13T05:52:41.230Z,9.00
2022-10-13T05:55:12.006Z,9.05
2022-10-13T05:57:42.319Z,9.10
2022-10-13T06:00:13.076Z,9.09
2022-10-13T06:02:43.026Z,9.08
2022-10-13T06:05:16.804Z,9.20
2022-10-13T06:07:45.477Z,9.26
2022-10-13T06:10:14.380Z,9.27
2022-10-13T06:12:42.687Z,9.44
2022-10-13T06:15:11.840Z,9.38
2022-10-13T06:17:40.358Z,9.38
2022-10-13T06:20:10.085Z,9.37
2022-10-13T06:22:40.267Z,9.38
2022-10-13T06:25:10.384Z,9.37
2022-10-13T06:27:38.558Z,9.41
2022-10-13T06:30:07.549Z,9.57
2022-10-13T06:32:35.809Z,9.56
2022-10-13T06:35:04.171Z,9.64
2022-10-13T06:37:32.570Z,9.74
2022-10-13T06:40:02.106Z,9.89
2022-10-13T06:42:32.030Z,10.04
2022-10-13T06:45:00.129Z,10.12
2022-10-13T06:47:28.288Z,10.31
2022-10-13T06:49:56.367Z,10.41
2022-10-13T06:52:24.508Z,10.61
2022-10-13T06:54:52.625Z,10.85
2022-10-13T06:57:22.169Z,10.62
2022-10-13T06:59:50.471Z,10.73
2022-10-13T07:02:18.884Z,10.75
2022-10-13T07:04:48.194Z,10.77
2022-10-13T07:07:17.323Z,10.67
2022-10-13T07:09:45.438Z,10.82
2022-10-13T07:12:14.700Z,10.92
2022-10-13T07:14:44.247Z,10.92
2022-10-13T07:17:12.752Z,11.11
2022-10-13T07:19:40.998Z,11.34
2022-10-13T07:22:09.087Z,11.62
2022-10-13T07:24:37.371Z,11.72
2022-10-13T07:27:07.908Z,11.82
2022-10-13T07:29:36.467Z,11.81
2022-10-13T07:32:06.628Z,11.76
2022-10-13T07:34:34.799Z,11.91
2022-10-13T07:37:02.967Z,11.83
2022-10-13T07:39:31.327Z,11.87
2022-10-13T07:41:59.605Z,12.06
2022-10-13T07:44:27.951Z,11.96
2022-10-13T07:46:56.037Z,12.02
2022-10-13T07:49:25.590Z,12.04
2022-10-13T07:51:53.716Z,12.20
2022-10-13T07:54:23.838Z,12.30
2022-10-13T07:56:56.236Z,12.31
2022-10-13T07:59:24.453Z,12.43
2022-10-13T08:01:52.949Z,12.38
2022-10-13T08:04:21.147Z,12.36
2022-10-13T08:06:50.675Z,12.16
2022-10-13T08:09:19.177Z,12.43
2022-10-13T08:11:47.257Z,12.58
2022-10-13T08:14:15.429Z,12.61
2022-10-13T08:16:48.694Z,12.64
2022-10-13T08:19:20.437Z,12.60
2022-10-13T08:22:06.611Z,12.51
2022-10-13T08:24:39.007Z,12.78
2022-10-13T08:27:07.108Z,12.64
2022-10-13T08:29:35.325Z,12.81
2022-10-13T08:32:03.478Z,12.88
2022-10-13T08:34:31.655Z,12.91
2022-10-13T08:37:00.447Z,13.02
2022-10-13T08:39:28.715Z,12.83
2022-10-13T08:41:58.721Z,13.01
2022-10-13T08:47:26.059Z,12.96
2022-10-13T08:49:59.123Z,13.02
2022-10-13T08:52:30.347Z,13.31
2022-10-13T08:54:59.533Z,13.36
2022-10-13T08:57:29.072Z,13.50
2022-10-13T08:59:57.265Z,13.20
2022-10-13T09:02:27.416Z,13.37
2022-10-13T09:04:55.565Z,13.04
2022-10-13T09:07:26.347Z,13.06
2022-10-13T09:09:55.350Z,13.24
2022-10-13T09:12:25.148Z,13.14
2022-10-13T09:15:05.384Z,13.23
2022-10-13T09:17:34.673Z,13.14
2022-10-13T09:20:05.530Z,13.25
2022-10-13T09:22:35.256Z,13.14
2022-10-13T09:25:12.508Z,13.23
2022-10-13T09:27:44.941Z,13.12
2022-10-13T09:30:33.948Z,13.09
2022-10-13T09:33:24.735Z,12.97
2022-10-13T09:36:11.213Z,13.12
2022-10-13T09:38:40.665Z,13.22
2022-10-13T09:41:15.474Z,13.10
2022-10-13T09:43:45.305Z,13.05
2022-10-13T09:46:23.008Z,13.08
2022-10-13T09:48:54.115Z,13.08
2022-10-13T09:51:32.250Z,13.25
2022-10-13T09:54:00.417Z,13.09
2022-10-13T09:56:32.358Z,13.02
2022-10-13T09:59:08.776Z,12.79
2022-10-13T10:01:44.577Z,12.80
2022-10-13T10:04:15.816Z,12.92
2022-10-13T10:06:45.567Z,13.09
2022-10-13T10:09:27.867Z,13.07
2022-10-13T10:11:59.430Z,13.03
2022-10-13T10:14:29.175Z,13.07
2022-10-13T10:17:04.907Z,13.03
2022-10-13T10:19:46.057Z,13.23
2022-10-13T10:22:19.556Z,13.34
2022-10-13T10:24:50.918Z,13.29
2022-10-13T10:29:57.978Z,13.21
2022-10-13T10:32:34.000Z,13.33
2022-10-13T10:35:05.810Z,13.46
2022-10-13T10:37:46.770Z,13.46
2022-10-13T10:40:26.684Z,13.79
2022-10-13T10:43:02.249Z,13.72
2022-10-13T10:45:35.238Z,13.99
2022-10-13T10:48:14.028Z,13.66
2022-10-13T10:50:42.717Z,13.68
2022-10-13T10:53:16.077Z,13.92
2022-10-13T10:55:51.504Z,13.74
2022-10-13T10:58:25.847Z,13.70
2022-10-13T11:00:59.987Z,13.83
2022-10-13T11:03:39.847Z,13.46
2022-10-13T11:06:24.377Z,13.13
2022-10-13T11:08:52.805Z,13.14
2022-10-13T11:11:43.538Z,12.95
2022-10-13T11:14:32.258Z,13.08
2022-10-13T11:17:17.900Z,13.06
2022-10-13T11:19:49.160Z,13.06
2022-10-13T11:22:23.208Z,13.11
2022-10-13T11:25:03.507Z,13.09
2022-10-13T11:27:45.279Z,13.01
2022-10-13T11:30:43.257Z,12.94
2022-10-13T11:33:57.368Z,12.96
2022-10-13T11:36:52.496Z,13.07
2022-10-13T11:40:04.978Z,13.36
2022-10-13T11:42:58.300Z,13.12
2022-10-13T11:46:02.975Z,13.27
2022-10-13T11:48:53.869Z,13.20
2022-10-13T11:51:32.457Z,13.30
2022-10-13T11:54:15.067Z,13.17
2022-10-13T11:56:49.129Z,13.35
2022-10-13T11:59:26.259Z,13.54
2022-10-13T12:01:55.491Z,13.81
2022-10-13T12:04:26.001Z,13.86
2022-10-13T12:06:57.638Z,13.94
2022-10-13T12:09:27.597Z,13.96
2022-10-13T12:12:01.888Z,14.01
2022-10-13T12:14:33.658Z,14.10
2022-10-13T12:17:02.958Z,14.19
2022-10-13T12:19:33.367Z,14.42
2022-10-13T12:22:02.910Z,14.41
2022-10-13T12:24:32.467Z,14.53
2022-10-13T12:27:00.910Z,14.63
2022-10-13T12:29:34.830Z,14.75
2022-10-13T12:32:06.092Z,15.19
2022-10-13T12:34:36.537Z,14.92
2022-10-13T12:37:07.317Z,15.11
2022-10-13T12:39:37.148Z,14.83
2022-10-13T12:42:08.280Z,14.70
2022-10-13T12:44:36.510Z,14.35
2022-10-13T12:47:04.957Z,14.08
2022-10-13T12:49:34.615Z,14.39
2022-10-13T12:52:07.151Z,14.56
2022-10-13T12:54:39.682Z,14.58
2022-10-13T12:57:18.078Z,14.64
2022-10-13T12:59:46.569Z,14.47
2022-10-13T13:02:22.164Z,14.45
2022-10-13T13:04:50.697Z,14.46
2022-10-13T13:07:32.749Z,14.53
2022-10-13T13:10:16.009Z,14.53
2022-10-13T13:12:44.731Z,14.45
2022-10-13T13:15:32.319Z,14.30
2022-10-13T13:18:29.657Z,14.31
2022-10-13T13:20:58.227Z,14.27
2022-10-13T13:23:33.358Z,14.13
2022-10-13T13:26:04.708Z,14.13
2022-10-13T13:28:33.682Z,14.02
2022-10-13T13:31:01.793Z,14.06
2022-10-13T13:33:30.091Z,13.97
2022-10-13T13:35:58.180Z,14.00
2022-10-13T13:38:26.527Z,14.15
2022-10-13T13:40:54.607Z,14.15
2022-10-13T13:43:24.246Z,14.16
2022-10-13T13:45:52.359Z,14.14
2022-10-13T13:48:20.785Z,13.95
2022-10-13T13:50:48.907Z,14.12
2022-10-13T13:53:17.755Z,14.12
2022-10-13T13:55:46.058Z,14.23
2022-10-13T13:58:14.208Z,14.27
2022-10-13T14:00:43.835Z,14.36
2022-10-13T14:03:17.092Z,14.41
2022-10-13T14:05:47.297Z,14.48
2022-10-13T14:08:16.140Z,14.46
2022-10-13T14:10:44.307Z,14.70
2022-10-13T14:13:12.540Z,14.62
2022-10-13T14:15:40.637Z,14.55
2022-10-13T14:18:10.218Z,14.64
2022-10-13T14:20:41.987Z,14.47
2022-10-13T14:23:10.157Z,14.24
2022-10-13T14:25:39.607Z,13.98
2022-10-13T14:28:07.772Z,13.84
2022-10-13T14:30:35.886Z,13.89
2022-10-13T14:33:05.238Z,13.77
2022-10-13T14:35:34.826Z,13.66
2022-10-13T14:38:03.081Z,13.69
2022-10-13T14:40:31.168Z,13.55
2022-10-13T14:42:59.257Z,13.51
2022-10-13T14:45:27.420Z,13.59
2022-10-13T14:47:55.499Z,13.60
2022-10-13T14:50:24.217Z,13.77
2022-10-13T14:52:53.717Z,13.75
2022-10-13T14:55:22.695Z,13.88
2022-10-13T14:57:50.806Z,13.93
2022-10-13T15:00:19.585Z,13.87
2022-10-13T15:02:48.025Z,13.72
2022-10-13T15:05:16.700Z,13.84
2022-10-13T15:07:45.061Z,13.87
2022-10-13T15:10:14.660Z,13.95
2022-10-13T15:12:42.831Z,13.95
2022-10-13T15:15:11.957Z,13.65
2022-10-13T15:17:40.055Z,13.78
2022-10-13T15:20:09.679Z,13.75
2022-10-13T15:22:37.889Z,13.56
2022-10-13T15:25:10.067Z,13.44
2022-10-13T15:27:42.018Z,13.55
2022-10-13T15:30:11.553Z,13.56
2022-10-13T15:32:39.736Z,13.59
2022-10-13T15:35:08.656Z,13.53
2022-10-13T15:37:37.251Z,13.51
2022-10-13T15:40:06.031Z,13.45
2022-10-13T15:42:34.995Z,13.40
2022-10-13T15:45:09.961Z,13.32
2022-10-13T15:47:38.466Z,13.29
2022-10-13T15:50:07.305Z,13.13
2022-10-13T15:52:40.880Z,13.03
2022-10-13T15:55:09.860Z,12.95
2022-10-13T15:57:38.486Z,12.77
2022-10-13T16:00:11.091Z,12.86
2022-10-13T16:02:40.488Z,12.80
2022-10-13T16:05:10.404Z,12.86
2022-10-13T16:07:40.172Z,12.84
2022-10-13T16:10:09.332Z,12.84
2022-10-13T16:12:37.785Z,12.83
2022-10-13T16:15:08.473Z,12.71
2022-10-13T16:17:36.797Z,12.64
2022-10-13T16:20:05.269Z,12.62
2022-10-13T16:22:33.683Z,12.56
2022-10-13T16:25:01.833Z,12.46
2022-10-13T16:27:30.444Z,12.29
2022-10-13T16:29:58.615Z,12.12
2022-10-13T16:32:28.394Z,12.00
2022-10-13T16:34:56.544Z,11.88
2022-10-13T16:40:17.824Z,11.65
2022-10-13T16:42:46.703Z,11.56
2022-10-13T16:45:15.331Z,11.41
2022-10-13T16:47:44.895Z,11.42
2022-10-13T17:24:34.774Z,10.83
2022-10-13T17:27:03.756Z,10.82
2022-10-13T17:29:31.954Z,10.83
2022-10-13T17:32:01.764Z,10.81
2022-10-13T17:34:29.913Z,10.81
2022-10-13T17:37:00.344Z,10.79
2022-10-13T17:39:28.584Z,10.71
2022-10-13T17:41:56.743Z,10.67
2022-10-13T17:44:25.234Z,10.62
2022-10-13T17:46:53.427Z,10.57
2022-10-13T17:49:21.714Z,10.54
2022-10-13T17:51:52.624Z,10.50
2022-10-13T17:54:22.605Z,10.52
2022-10-13T17:56:50.985Z,10.51
2022-10-13T17:59:20.254Z,10.44
2022-10-13T18:01:48.505Z,10.40
2022-10-13T18:04:18.923Z,10.31
2022-10-13T18:06:47.333Z,10.39
2022-10-13T18:09:17.754Z,10.35
2022-10-13T18:11:50.706Z,10.27
2022-10-13T18:14:20.113Z,10.17
2022-10-13T18:16:49.005Z,10.13
2022-10-13T18:19:17.266Z,10.06
2022-10-13T18:21:45.574Z,10.03
2022-10-13T18:24:13.814Z,9.97
2022-10-13T18:26:42.451Z,9.95
2022-10-13T18:29:13.426Z,9.91
2022-10-13T18:31:43.453Z,9.90
2022-10-13T18:34:14.926Z,9.94
2022-10-13T18:36:44.683Z,9.96
2022-10-13T18:39:14.244Z,9.95
2022-10-13T18:41:43.166Z,9.94
2022-10-13T18:44:13.526Z,9.92
2022-10-13T18:46:41.968Z,9.92
2022-10-13T18:49:14.061Z,9.86
2022-10-13T18:51:42.663Z,9.84
2022-10-13T18:54:11.483Z,9.81
2022-10-13T18:56:39.654Z,9.78
2022-10-13T18:59:09.918Z,9.76
2022-10-13T19:01:40.996Z,9.74
2022-10-13T19:04:10.146Z,9.70
2022-10-13T19:06:39.134Z,9.68
2022-10-13T19:09:09.405Z,9.61
2022-10-13T19:11:38.137Z,9.54
2022-10-13T19:14:09.187Z,9.52
2022-10-13T19:16:41.176Z,9.47
2022-10-13T19:19:09.894Z,9.41
2022-10-13T19:21:38.964Z,9.36
2022-10-13T19:24:08.033Z,9.30
2022-10-13T19:26:37.407Z,9.24
2022-10-13T19:29:07.205Z,9.12
2022-10-13T19:31:35.856Z,9.18
2022-10-13T19:34:05.819Z,9.17
2022-10-13T19:36:36.384Z,9.19
2022-10-13T19:39:06.864Z,9.19
2022-10-13T19:41:36.499Z,9.25
2022-10-13T19:44:04.681Z,9.25
2022-10-13T19:46:33.554Z,9.42
2022-10-13T19:49:01.703Z,9.52
2022-10-13T19:51:31.555Z,9.60
2022-10-13T19:53:59.892Z,9.63
2022-10-13T19:56:31.464Z,9.80
2022-10-13T19:58:59.959Z,9.84
2022-10-13T20:01:28.303Z,9.82
2022-10-13T20:03:56.594Z,9.84
2022-10-13T20:06:24.784Z,9.77
2022-10-13T20:08:54.354Z,9.76
2022-10-13T20:11:24.344Z,9.74
2022-10-13T20:13:53.342Z,9.70
2022-10-13T20:16:24.261Z,9.65
2022-10-13T20:18:53.773Z,9.70
2022-10-13T20:21:22.755Z,9.66
2022-10-13T20:23:51.144Z,9.59
2022-10-13T20:26:21.199Z,9.49
2022-10-13T20:28:50.470Z,9.52
2022-10-13T20:31:21.612Z,9.41
2022-10-13T20:33:50.748Z,9.48
2022-10-13T20:36:19.599Z,9.40
2022-10-13T20:38:48.873Z,9.34
2022-10-13T20:41:18.572Z,9.30
2022-10-13T20:43:49.299Z,9.22
2022-10-13T20:46:19.555Z,9.13
2022-10-13T20:51:36.373Z,9.12
2022-10-13T20:54:04.698Z,9.10
2022-10-13T20:56:32.853Z,9.10
2022-10-13T20:59:05.412Z,9.14
2022-10-13T21:01:34.084Z,9.14
2022-10-13T21:04:02.299Z,9.10
2022-10-13T21:06:30.493Z,9.10
2022-10-13T21:08:58.722Z,9.07
2022-10-13T21:11:26.975Z,9.08
2022-10-13T21:13:55.512Z,9.08
2022-10-13T21:16:27.629Z,9.12
2022-10-13T21:18:56.933Z,9.13
2022-10-13T21:21:27.036Z,9.21
2022-10-13T21:23:56.434Z,9.24
2022-10-13T21:26:25.513Z,9.25
2022-10-13T21:28:53.973Z,9.28
2022-10-13T21:31:24.853Z,9.26
2022-10-13T21:33:53.091Z,9.27
2022-10-13T21:36:23.147Z,9.38
2022-10-13T21:38:53.536Z,9.45
2022-10-13T21:41:22.697Z,9.53
2022-10-13T21:43:51.243Z,9.55
2022-10-13T21:46:21.491Z,9.47
2022-10-13T21:48:51.544Z,9.63
2022-10-13T21:51:21.374Z,9.80
2022-10-13T21:53:51.073Z,9.87
2022-10-13T21:56:19.838Z,9.84
2022-10-13T21:58:49.218Z,9.73
2022-10-13T22:01:19.826Z,9.70
2022-10-13T22:03:48.453Z,9.65
2022-10-13T22:06:19.790Z,9.65
2022-10-13T22:08:50.217Z,9.60
2022-10-13T22:11:19.361Z,9.50
2022-10-13T22:13:47.694Z,9.49
2022-10-13T22:16:17.769Z,9.49
2022-10-13T22:18:46.091Z,9.53
2022-10-13T22:21:17.138Z,9.44
2022-10-13T22:23:47.614Z,9.54
2022-10-13T22:26:17.038Z,9.56
2022-10-13T22:28:45.383Z,9.54
2022-10-13T22:31:14.447Z,9.51
2022-10-13T22:33:43.655Z,9.50
2022-10-13T22:36:14.748Z,9.37
2022-10-13T22:38:43.046Z,9.45
2022-10-13T22:41:14.923Z,9.39
2022-10-13T22:43:44.463Z,9.37
2022-10-13T22:46:12.918Z,9.36
2022-10-13T22:48:41.745Z,9.35
2022-10-13T22:51:10.328Z,9.34
2022-10-13T22:53:39.063Z,9.36
2022-10-13T22:56:07.887Z,9.38
2022-10-13T22:58:37.574Z,9.36
2022-10-13T23:01:06.755Z,9.37
2022-10-13T23:03:34.995Z,9.37
2022-10-13T23:06:03.380Z,9.40
2022-10-13T23:08:31.614Z,9.38
2022-10-13T23:10:59.806Z,9.33
2022-10-13T23:13:28.113Z,9.31
2022-10-13T23:16:02.282Z,9.30
2022-10-13T23:18:30.413Z,9.29
2022-10-13T23:20:58.653Z,9.29
2022-10-13T23:23:26.844Z,9.31
2022-10-13T23:25:55.014Z,9.30
2022-10-13T23:28:23.266Z,9.34
2022-10-13T23:30:51.473Z,9.31
2022-10-13T23:33:21.107Z,9.32
2022-10-13T23:35:55.799Z,9.31
2022-10-13T23:38:24.413Z,9.35
2022-10-13T23:40:53.745Z,9.26
2022-10-13T23:43:22.279Z,9.30
2022-10-13T23:45:50.564Z,9.21
2022-10-13T23:48:20.143Z,9.27
2022-10-13T23:50:48.352Z,9.25
2022-10-13T23:53:16.953Z,9.23
2022-10-13T23:55:45.273Z,9.24
2022-10-13T23:58:14.132Z,9.26
